createdAt,value
2019-02-21T00:02:44.666Z,22.90
2019-02-21T00:05:33.821Z,19.82
2019-02-21T00:08:22.055Z,19.45
2019-02-21T00:11:10.670Z,20.37
2019-02-21T00:13:59.783Z,19.95
2019-02-21T00:16:48.715Z,22.17
2019-02-21T00:19:37.224Z,23.27
2019-02-21T00:22:26.399Z,24.90
2019-02-21T00:25:14.759Z,20.30
2019-02-21T00:28:03.035Z,19.35
2019-02-21T00:30:51.873Z,22.55
2019-02-21T00:33:40.720Z,23.90
2019-02-21T00:36:29.455Z,24.40
2019-02-21T00:39:17.718Z,21.07
2019-02-21T00:42:06.783Z,22.33
2019-02-21T00:44:55.374Z,19.48
2019-02-21T00:47:43.980Z,22.60
2019-02-21T00:50:32.904Z,22.73
2019-02-21T00:53:21.952Z,24.52
2019-02-21T00:56:10.279Z,22.17
2019-02-21T00:58:59.543Z,21.95
2019-02-21T01:01:48.056Z,21.95
2019-02-21T01:04:37.061Z,22.22
2019-02-21T01:07:25.990Z,30.20
2019-02-21T01:10:14.324Z,21.05
2019-02-21T01:13:03.025Z,22.50
2019-02-21T01:15:51.578Z,19.98
2019-02-21T01:18:40.388Z,20.08
2019-02-21T01:21:29.055Z,25.48
2019-02-21T01:24:17.954Z,23.22
2019-02-21T01:27:06.807Z,22.60
2019-02-21T01:29:55.670Z,17.98
2019-02-21T01:32:44.322Z,18.98
2019-02-21T01:35:33.472Z,19.50
2019-02-21T01:38:22.011Z,20.02
2019-02-21T01:41:10.818Z,18.80
2019-02-21T01:43:59.741Z,20.75
2019-02-21T01:46:48.547Z,18.05
2019-02-21T01:49:37.490Z,21.20
2019-02-21T01:52:26.277Z,22.02
2019-02-21T01:55:14.696Z,20.52
2019-02-21T01:58:03.910Z,21.85
2019-02-21T02:00:52.920Z,21.15
2019-02-21T02:03:41.218Z,20.43
2019-02-21T02:06:29.957Z,22.60
2019-02-21T02:09:18.936Z,24.65
2019-02-21T02:12:07.218Z,17.63
2019-02-21T02:14:56.449Z,20.45
2019-02-21T02:17:45.898Z,19.60
2019-02-21T02:20:34.311Z,22.42
2019-02-21T02:23:23.312Z,19.12
2019-02-21T02:26:12.430Z,23.50
2019-02-21T02:29:01.333Z,18.85
2019-02-21T02:31:50.414Z,20.70
2019-02-21T02:34:38.597Z,21.55
2019-02-21T02:37:27.048Z,22.13
2019-02-21T02:40:15.582Z,18.07
2019-02-21T02:43:04.300Z,21.02
2019-02-21T02:45:53.281Z,22.20
2019-02-21T02:48:43.162Z,19.67
2019-02-21T02:51:32.181Z,22.13
2019-02-21T02:54:21.059Z,17.82
2019-02-21T02:57:09.716Z,19.00
2019-02-21T02:59:58.640Z,19.92
2019-02-21T03:02:48.288Z,23.38
2019-02-21T03:05:37.023Z,22.50
2019-02-21T03:08:25.423Z,22.00
2019-02-21T03:11:14.398Z,21.97
2019-02-21T03:14:03.225Z,22.50
2019-02-21T03:16:52.356Z,22.73
2019-02-21T03:19:40.667Z,19.23
2019-02-21T03:22:29.366Z,21.50
2019-02-21T03:25:19.774Z,21.90
2019-02-21T03:28:08.270Z,19.07
2019-02-21T03:30:56.693Z,20.27
2019-02-21T03:33:45.506Z,17.62
2019-02-21T03:36:34.141Z,23.02
2019-02-21T03:39:22.252Z,20.65
2019-02-21T03:42:11.208Z,19.52
2019-02-21T03:44:59.758Z,20.45
2019-02-21T03:47:48.191Z,20.52
2019-02-21T03:50:36.950Z,16.62
2019-02-21T03:53:25.934Z,19.00
2019-02-21T03:56:14.086Z,21.40
2019-02-21T03:59:02.918Z,21.17
2019-02-21T04:01:51.510Z,20.02
2019-02-21T04:04:40.608Z,16.45
2019-02-21T04:07:28.781Z,19.17
2019-02-21T04:10:17.434Z,21.30
2019-02-21T04:13:06.268Z,21.70
2019-02-21T04:15:54.722Z,18.17
2019-02-21T04:18:43.786Z,18.15
2019-02-21T04:21:32.908Z,18.42
2019-02-21T04:24:21.680Z,19.80
2019-02-21T04:27:10.880Z,18.87
2019-02-21T04:29:59.197Z,18.85
2019-02-21T04:32:47.609Z,21.97
2019-02-21T04:35:36.791Z,19.52
2019-02-21T04:38:25.592Z,19.37
2019-02-21T04:41:14.437Z,23.20
2019-02-21T04:44:04.444Z,19.87
2019-02-21T04:46:53.270Z,20.15
2019-02-21T04:49:42.216Z,17.60
2019-02-21T04:52:30.438Z,21.25
2019-02-21T04:55:18.999Z,21.62
2019-02-21T04:58:07.083Z,20.02
2019-02-21T05:00:56.192Z,19.05
2019-02-21T05:03:44.824Z,24.55
2019-02-21T05:06:33.442Z,21.73
2019-02-21T05:09:22.512Z,20.75
2019-02-21T05:12:11.187Z,18.77
2019-02-21T05:14:59.934Z,21.15
2019-02-21T05:17:48.773Z,17.85
2019-02-21T05:20:37.551Z,18.60
2019-02-21T05:23:26.555Z,19.40
2019-02-21T05:26:19.999Z,18.30
2019-02-21T05:29:10.717Z,17.95
2019-02-21T05:32:14.712Z,19.42
2019-02-21T05:35:25.085Z,19.17
2019-02-21T05:38:32.197Z,21.77
2019-02-21T05:41:42.545Z,19.47
2019-02-21T05:44:36.295Z,21.57
2019-02-21T05:47:44.338Z,19.00
2019-02-21T05:51:06.981Z,19.07
2019-02-21T05:54:13.137Z,18.42
2019-02-21T05:57:19.185Z,20.37
2019-02-21T06:00:26.004Z,18.90
2019-02-21T06:03:52.135Z,24.18
2019-02-21T06:06:58.983Z,20.37
2019-02-21T06:10:03.540Z,18.52
2019-02-21T06:13:07.325Z,19.20
2019-02-21T06:16:04.567Z,20.80
2019-02-21T06:19:18.966Z,20.75
2019-02-21T06:22:17.381Z,21.17
2019-02-21T06:25:30.904Z,20.02
2019-02-21T06:28:42.339Z,17.12
2019-02-21T06:31:30.880Z,19.70
2019-02-21T06:34:19.641Z,20.80
2019-02-21T06:37:08.151Z,18.73
2019-02-21T06:39:56.325Z,22.50
2019-02-21T06:42:45.317Z,19.17
2019-02-21T06:45:34.541Z,19.27
2019-02-21T06:48:23.152Z,23.85
2019-02-21T06:51:11.580Z,19.20
2019-02-21T06:54:00.311Z,27.75
2019-02-21T06:56:48.914Z,28.87
2019-02-21T06:59:42.486Z,35.75
2019-02-21T07:02:28.260Z,25.17
2019-02-21T07:05:17.016Z,22.70
2019-02-21T07:08:05.551Z,18.85
2019-02-21T07:11:05.433Z,24.07
2019-02-21T07:13:44.599Z,22.67
2019-02-21T07:16:32.789Z,24.80
2019-02-21T07:19:20.963Z,19.92
2019-02-21T07:22:09.523Z,18.98
2019-02-21T07:25:03.348Z,21.25
2019-02-21T07:27:51.719Z,18.87
2019-02-21T07:30:42.947Z,19.35
2019-02-21T07:33:30.679Z,20.10
2019-02-21T07:36:19.536Z,20.92
2019-02-21T07:39:18.323Z,18.62
2019-02-21T07:41:58.980Z,20.90
2019-02-21T07:44:48.207Z,19.77
2019-02-21T07:47:36.497Z,19.42
2019-02-21T07:50:25.372Z,20.23
2019-02-21T07:53:14.232Z,19.12
2019-02-21T07:56:03.056Z,18.33
2019-02-21T07:58:51.677Z,21.87
2019-02-21T08:01:40.593Z,21.48
2019-02-21T08:04:29.165Z,15.32
2019-02-21T08:07:17.236Z,24.40
2019-02-21T08:10:06.542Z,18.32
2019-02-21T08:12:54.788Z,21.55
2019-02-21T08:15:43.275Z,19.90
2019-02-21T08:18:32.160Z,22.48
2019-02-21T08:21:20.616Z,17.67
2019-02-21T08:24:09.654Z,19.48
2019-02-21T08:26:58.519Z,24.20
2019-02-21T08:29:47.533Z,18.00
2019-02-21T08:32:54.770Z,19.00
2019-02-21T08:35:43.559Z,24.90
2019-02-21T08:38:32.414Z,22.35
2019-02-21T08:41:21.616Z,27.47
2019-02-21T08:44:10.780Z,20.05
2019-02-21T08:46:59.367Z,23.80
2019-02-21T08:49:47.990Z,26.68
2019-02-21T08:52:36.457Z,26.17
2019-02-21T08:55:26.162Z,26.57
2019-02-21T08:58:15.280Z,30.15
2019-02-21T09:01:04.224Z,25.90
2019-02-21T09:03:52.707Z,23.45
2019-02-21T09:06:41.844Z,27.45
2019-02-21T09:09:30.043Z,21.70
2019-02-21T09:12:19.052Z,23.83
2019-02-21T09:15:09.909Z,28.35
2019-02-21T09:17:58.426Z,25.68
2019-02-21T09:20:47.846Z,24.77
2019-02-21T09:23:36.719Z,22.82
2019-02-21T09:26:25.352Z,34.30
2019-02-21T09:29:13.896Z,36.45
2019-02-21T09:32:02.821Z,26.40
2019-02-21T09:34:51.404Z,29.77
2019-02-21T09:37:40.014Z,26.12
2019-02-21T09:40:28.818Z,28.25
2019-02-21T09:43:18.247Z,21.30
2019-02-21T09:46:07.398Z,28.38
2019-02-21T09:48:55.676Z,32.65
2019-02-21T09:51:44.528Z,21.45
2019-02-21T09:54:33.376Z,21.05
2019-02-21T09:57:22.412Z,21.30
2019-02-21T10:00:14.376Z,23.52
2019-02-21T10:03:03.091Z,20.27
2019-02-21T10:05:51.296Z,20.15
2019-02-21T10:08:39.856Z,23.40
2019-02-21T10:11:28.563Z,19.97
2019-02-21T10:14:17.519Z,17.77
2019-02-21T10:17:06.443Z,17.80
2019-02-21T10:19:57.437Z,17.85
2019-02-21T10:22:46.202Z,20.20
2019-02-21T10:25:35.126Z,22.10
2019-02-21T10:28:25.480Z,19.75
2019-02-21T10:31:14.071Z,13.60
2019-02-21T10:34:02.629Z,14.53
2019-02-21T10:36:51.239Z,12.85
2019-02-21T10:39:40.009Z,15.25
2019-02-21T10:42:28.481Z,16.27
2019-02-21T10:45:18.343Z,13.20
2019-02-21T10:48:06.756Z,19.05
2019-02-21T10:50:55.848Z,17.15
2019-02-21T10:53:44.340Z,15.10
2019-02-21T10:56:33.285Z,15.83
2019-02-21T10:59:22.408Z,15.25
2019-02-21T11:02:11.407Z,15.43
2019-02-21T11:05:00.583Z,18.30
2019-02-21T11:07:49.247Z,18.32
2019-02-21T11:10:37.600Z,13.47
2019-02-21T11:13:26.112Z,17.45
2019-02-21T11:16:14.805Z,17.90
2019-02-21T11:19:03.636Z,16.32
2019-02-21T11:21:52.304Z,18.23
2019-02-21T11:24:41.450Z,19.45
2019-02-21T11:27:30.114Z,14.38
2019-02-21T11:30:19.224Z,19.70
2019-02-21T11:33:07.201Z,15.43
2019-02-21T11:35:55.683Z,13.88
2019-02-21T11:38:44.387Z,15.83
2019-02-21T11:41:33.399Z,14.97
2019-02-21T11:44:22.450Z,16.87
2019-02-21T11:47:10.730Z,16.77
2019-02-21T11:49:59.411Z,19.03
2019-02-21T11:52:48.375Z,18.50
2019-02-21T11:55:37.639Z,20.73
2019-02-21T11:58:26.602Z,17.60
2019-02-21T12:01:15.700Z,20.20
2019-02-21T12:04:04.495Z,15.37
2019-02-21T12:06:53.256Z,20.07
2019-02-21T12:09:41.778Z,19.90
2019-02-21T12:12:30.826Z,17.53
2019-02-21T12:15:19.669Z,17.20
2019-02-21T12:18:08.793Z,22.57
2019-02-21T12:20:57.781Z,18.13
2019-02-21T12:23:46.527Z,17.27
2019-02-21T12:26:35.902Z,19.40
2019-02-21T12:29:24.888Z,21.03
2019-02-21T12:32:13.099Z,21.10
2019-02-21T12:35:01.577Z,19.23
2019-02-21T12:37:50.069Z,24.40
2019-02-21T12:40:39.198Z,20.92
2019-02-21T12:43:28.030Z,23.87
2019-02-21T12:46:16.869Z,22.33
2019-02-21T12:49:05.908Z,20.27
2019-02-21T12:51:54.336Z,20.67
2019-02-21T12:54:43.123Z,24.77
2019-02-21T12:57:31.287Z,19.83
2019-02-21T13:00:19.790Z,21.70
2019-02-21T13:03:08.787Z,20.70
2019-02-21T13:05:57.872Z,21.27
2019-02-21T13:08:46.940Z,18.73
2019-02-21T13:11:35.690Z,18.30
2019-02-21T13:14:24.468Z,18.83
2019-02-21T13:17:13.732Z,18.77
2019-02-21T13:20:02.706Z,18.80
2019-02-21T13:22:51.519Z,21.07
2019-02-21T13:25:41.117Z,20.33
2019-02-21T13:28:29.290Z,22.80
2019-02-21T13:31:18.254Z,16.70
2019-02-21T13:34:07.252Z,21.20
2019-02-21T13:36:56.015Z,19.13
2019-02-21T13:39:44.728Z,18.03
2019-02-21T13:42:33.501Z,18.90
2019-02-21T13:45:22.200Z,16.63
2019-02-21T13:48:11.125Z,17.40
2019-02-21T13:51:00.445Z,15.17
2019-02-21T13:53:52.135Z,14.47
2019-02-21T13:56:39.785Z,14.07
2019-02-21T13:59:28.129Z,12.60
2019-02-21T14:02:17.242Z,10.67
2019-02-21T14:05:06.357Z,11.23
2019-02-21T14:07:54.614Z,16.80
2019-02-21T14:10:44.356Z,15.50
2019-02-21T14:13:33.609Z,13.80
2019-02-21T14:16:22.678Z,12.50
2019-02-21T14:19:12.089Z,11.73
2019-02-21T14:22:05.886Z,11.60
2019-02-21T14:24:54.883Z,16.70
2019-02-21T14:27:44.029Z,8.80
2019-02-21T14:30:33.186Z,10.13
2019-02-21T14:33:22.569Z,14.50
2019-02-21T14:36:15.543Z,9.93
2019-02-21T14:39:01.546Z,11.33
2019-02-21T14:41:50.722Z,10.00
2019-02-21T14:44:40.004Z,11.03
2019-02-21T14:47:28.797Z,13.73
2019-02-21T14:50:18.272Z,11.70
2019-02-21T14:53:06.972Z,11.73
2019-02-21T14:55:56.196Z,13.73
2019-02-21T14:58:45.050Z,9.23
2019-02-21T15:01:33.781Z,8.87
2019-02-21T15:04:23.408Z,10.80
2019-02-21T15:07:12.286Z,7.90
2019-02-21T15:10:01.579Z,10.67
2019-02-21T15:12:50.888Z,12.63
2019-02-21T15:15:39.690Z,8.83
2019-02-21T15:18:28.476Z,10.40
2019-02-21T15:21:17.374Z,8.03
2019-02-21T15:24:07.776Z,12.57
2019-02-21T15:27:07.880Z,11.27
2019-02-21T15:29:47.055Z,10.23
2019-02-21T15:32:36.334Z,11.87
2019-02-21T15:35:25.351Z,9.73
2019-02-21T15:38:19.890Z,9.07
2019-02-21T15:41:09.738Z,10.77
2019-02-21T15:43:59.515Z,8.90
2019-02-21T15:46:48.919Z,6.60
2019-02-21T15:49:38.313Z,12.00
2019-02-21T15:52:27.543Z,8.37
2019-02-21T15:55:16.816Z,11.20
2019-02-21T15:58:06.471Z,11.50
2019-02-21T16:00:55.724Z,12.07
2019-02-21T16:03:44.643Z,11.43
2019-02-21T16:06:33.103Z,11.20
2019-02-21T16:09:25.030Z,9.60
2019-02-21T16:12:13.163Z,14.23
2019-02-21T16:15:01.880Z,13.60
2019-02-21T16:17:50.410Z,8.80
2019-02-21T16:20:39.737Z,17.43
2019-02-21T16:23:28.505Z,25.70
2019-02-21T16:26:17.193Z,11.90
2019-02-21T16:29:06.223Z,14.63
2019-02-21T16:31:55.735Z,12.50
2019-02-21T16:34:44.422Z,11.60
2019-02-21T16:37:33.414Z,14.60
2019-02-21T16:40:22.434Z,15.30
2019-02-21T16:43:14.932Z,11.70
2019-02-21T16:46:07.746Z,14.97
2019-02-21T16:48:54.430Z,15.20
2019-02-21T16:51:43.559Z,12.10
2019-02-21T16:54:32.443Z,12.30
2019-02-21T16:57:21.088Z,13.97
2019-02-21T17:00:11.555Z,12.13
2019-02-21T17:03:00.014Z,17.70
2019-02-21T17:05:48.628Z,18.67
2019-02-21T17:08:37.660Z,14.93
2019-02-21T17:11:26.332Z,16.62
2019-02-21T17:14:16.483Z,11.75
2019-02-21T17:17:05.253Z,15.33
2019-02-21T17:19:54.473Z,11.33
2019-02-21T17:22:42.849Z,12.37
2019-02-21T17:25:32.056Z,15.28
2019-02-21T17:28:21.900Z,18.48
2019-02-21T17:31:11.695Z,12.00
2019-02-21T17:34:00.947Z,13.53
2019-02-21T17:36:50.046Z,10.60
2019-02-21T17:39:39.323Z,14.77
2019-02-21T17:42:28.363Z,14.47
2019-02-21T17:45:17.443Z,11.90
2019-02-21T17:48:06.198Z,11.53
2019-02-21T17:50:55.182Z,16.30
2019-02-21T17:53:44.122Z,12.10
2019-02-21T17:56:32.984Z,15.40
2019-02-21T17:59:21.579Z,9.53
2019-02-21T18:02:10.114Z,11.83
2019-02-21T18:04:59.032Z,15.83
2019-02-21T18:07:48.072Z,13.00
2019-02-21T18:10:36.628Z,17.07
2019-02-21T18:13:27.652Z,16.37
2019-02-21T18:16:16.865Z,14.93
2019-02-21T18:19:05.714Z,13.72
2019-02-21T18:21:54.494Z,19.25
2019-02-21T18:24:43.753Z,15.90
2019-02-21T18:27:32.638Z,20.63
2019-02-21T18:30:21.992Z,18.62
2019-02-21T18:33:10.771Z,19.07
2019-02-21T18:35:59.634Z,21.65
2019-02-21T18:38:49.221Z,15.15
2019-02-21T18:41:38.479Z,12.15
2019-02-21T18:44:27.141Z,14.98
2019-02-21T18:47:15.910Z,15.35
2019-02-21T18:50:05.520Z,13.05
2019-02-21T18:52:53.801Z,16.35
2019-02-21T18:55:42.839Z,16.30
2019-02-21T18:58:31.837Z,15.48
2019-02-21T19:01:20.826Z,12.60
2019-02-21T19:04:09.389Z,17.10
2019-02-21T19:06:58.364Z,23.70
2019-02-21T19:09:47.546Z,21.85
2019-02-21T19:12:36.267Z,22.17
2019-02-21T19:15:26.643Z,18.20
2019-02-21T19:18:15.591Z,16.77
2019-02-21T19:21:04.516Z,26.82
2019-02-21T19:23:53.716Z,15.28
2019-02-21T19:26:43.247Z,21.00
2019-02-21T19:29:31.479Z,18.73
2019-02-21T19:32:20.916Z,17.55
2019-02-21T19:35:09.936Z,19.45
2019-02-21T19:38:09.458Z,17.20
2019-02-21T19:40:50.141Z,14.90
2019-02-21T19:43:38.956Z,20.60
2019-02-21T19:46:28.060Z,20.92
2019-02-21T19:49:16.860Z,18.40
2019-02-21T19:52:06.010Z,25.23
2019-02-21T19:54:54.848Z,19.82
2019-02-21T19:57:43.165Z,16.57
2019-02-21T20:00:33.693Z,19.07
2019-02-21T20:03:23.305Z,16.02
2019-02-21T20:06:12.730Z,17.07
2019-02-21T20:09:01.381Z,19.23
2019-02-21T20:11:50.371Z,18.62
2019-02-21T20:14:39.527Z,19.10
2019-02-21T20:17:28.286Z,19.07
2019-02-21T20:20:17.390Z,16.75
2019-02-21T20:23:06.550Z,17.75
2019-02-21T20:25:55.921Z,18.20
2019-02-21T20:28:44.544Z,15.60
2019-02-21T20:31:33.835Z,25.30
2019-02-21T20:34:22.759Z,18.25
2019-02-21T20:37:12.020Z,20.62
2019-02-21T20:40:00.628Z,24.90
2019-02-21T20:42:49.800Z,20.15
2019-02-21T20:45:38.618Z,20.80
2019-02-21T20:48:30.512Z,24.07
2019-02-21T20:51:18.347Z,30.17
2019-02-21T20:54:07.300Z,26.85
2019-02-21T20:56:56.554Z,23.90
2019-02-21T20:59:45.677Z,25.60
2019-02-21T21:02:34.998Z,24.15
2019-02-21T21:05:23.818Z,22.70
2019-02-21T21:08:12.617Z,23.75
2019-02-21T21:11:02.008Z,20.90
2019-02-21T21:13:50.752Z,18.95
2019-02-21T21:16:39.802Z,18.82
2019-02-21T21:19:28.856Z,24.00
2019-02-21T21:22:17.306Z,25.68
2019-02-21T21:25:08.028Z,21.90
2019-02-21T21:27:56.099Z,16.93
2019-02-21T21:30:45.145Z,20.35
2019-02-21T21:33:33.910Z,21.00
2019-02-21T21:36:23.504Z,20.30
2019-02-21T21:39:13.016Z,21.93
2019-02-21T21:42:03.079Z,17.80
2019-02-21T21:44:52.513Z,19.00
2019-02-21T21:47:41.319Z,18.37
2019-02-21T21:50:30.016Z,19.35
2019-02-21T21:53:18.900Z,18.70
2019-02-21T21:56:07.892Z,17.70
2019-02-21T21:58:57.274Z,18.77
2019-02-21T22:01:47.649Z,17.57
2019-02-21T22:04:35.993Z,24.35
2019-02-21T22:07:24.767Z,19.80
2019-02-21T22:10:14.566Z,19.37
2019-02-21T22:13:02.999Z,17.23
2019-02-21T22:15:52.449Z,20.08
2019-02-21T22:18:41.681Z,17.77
2019-02-21T22:21:30.887Z,23.42
2019-02-21T22:24:22.553Z,17.92
2019-02-21T22:27:11.084Z,19.83
2019-02-21T22:30:00.189Z,26.00
2019-02-21T22:32:49.941Z,21.30
2019-02-21T22:35:38.995Z,22.42
2019-02-21T22:38:27.586Z,18.55
2019-02-21T22:41:16.741Z,17.40
2019-02-21T22:44:06.171Z,19.02
2019-02-21T22:46:55.200Z,24.85
2019-02-21T22:49:44.307Z,20.92
2019-02-21T22:52:33.155Z,19.75
2019-02-21T22:55:21.892Z,19.05
2019-02-21T22:58:10.785Z,15.65
2019-02-21T23:01:38.473Z,17.77
2019-02-21T23:04:45.165Z,18.73
2019-02-21T23:07:42.585Z,20.55
2019-02-21T23:10:30.893Z,22.65
2019-02-21T23:13:19.046Z,17.62
2019-02-21T23:16:07.643Z,22.98
2019-02-21T23:18:56.491Z,20.10
2019-02-21T23:21:45.409Z,15.53
2019-02-21T23:24:34.277Z,17.25
2019-02-21T23:27:22.676Z,15.73
2019-02-21T23:30:13.129Z,18.50
2019-02-21T23:33:01.840Z,20.25
2019-02-21T23:35:50.421Z,16.42
2019-02-21T23:38:38.982Z,19.17
2019-02-21T23:41:27.863Z,18.10
2019-02-21T23:44:16.609Z,15.98
2019-02-21T23:47:05.796Z,16.80
2019-02-21T23:49:54.773Z,14.80
2019-02-21T23:52:43.263Z,15.28
2019-02-21T23:55:32.064Z,17.55
2019-02-21T23:58:20.717Z,15.70
